Time;durP1;ratioP1;P1;durP2;ratioP2;P2;SDS_P1;SDS_P2;PMS_P1;PMS_P2;Temp;Humidity;BMP_temperature;BMP_pressure;BME280_temperature;BME280_humidity;BME280_pressure;Samples;Min_cycle;Max_cycle;Signal;HPM_P1;HPM_P2
2022/07/21 00:01:04;;;;;;;0.00;0.00;;;;;;;;;;5044818;28;20060;-63
2022/07/21 00:03:29;;;;;;;0.00;0.00;;;;;;;;;;5048354;28;20059;-64
2022/07/21 00:05:54;;;;;;;0.00;0.00;;;;;;;;;;5046583;28;20100;-62
2022/07/21 00:08:19;;;;;;;0.15;0.15;;;;;;;;;;5038099;28;20457;-61
2022/07/21 00:10:45;;;;;;;0.00;0.00;;;;;;;;;;5039381;28;20540;-62
2022/07/21 00:13:10;;;;;;;0.00;0.00;;;;;;;;;;5045041;28;20060;-61
2022/07/21 00:15:35;;;;;;;0.00;0.00;;;;;;;;;;5039217;28;20017;-61
2022/07/21 00:18:00;;;;;;;0.00;0.00;;;;;;;;;;5032163;28;20367;-62
2022/07/21 00:20:27;;;;;;;0.00;0.00;;;;;;;;;;5044388;28;20455;-62
2022/07/21 00:22:52;;;;;;;0.00;0.00;;;;;;;;;;5039093;28;20026;-61
2022/07/21 00:25:18;;;;;;;0.00;0.00;;;;;;;;;;5048743;28;20047;-61
2022/07/21 00:27:43;;;;;;;2.17;2.17;;;;;;;;;;5032131;28;20026;-62
2022/07/21 00:30:09;;;;;;;0.00;0.00;;;;;;;;;;5047583;28;20063;-61
2022/07/21 00:32:34;;;;;;;0.00;0.00;;;;;;;;;;5044697;28;20037;-62
2022/07/21 00:34:59;;;;;;;0.00;0.00;;;;;;;;;;5040978;28;20111;-63
2022/07/21 00:37:26;;;;;;;0.00;0.00;;;;;;;;;;5044686;28;20029;-63
2022/07/21 00:39:52;;;;;;;0.00;0.00;;;;;;;;;;5046492;28;20267;-63
2022/07/21 00:42:21;;;;;;;0.00;0.00;;;;;;;;;;5045821;28;20510;-62
2022/07/21 00:44:46;;;;;;;0.00;0.00;;;;;;;;;;5052434;28;20025;-63
2022/07/21 00:47:11;;;;;;;0.00;0.00;;;;;;;;;;5045471;28;20024;-63
2022/07/21 00:49:36;;;;;;;0.00;0.00;;;;;;;;;;5038276;28;20330;-63
2022/07/21 00:52:02;;;;;;;0.00;0.00;;;;;;;;;;5047718;28;20052;-63
2022/07/21 00:54:27;;;;;;;0.25;0.25;;;;;;;;;;5034462;28;20034;-62
2022/07/21 00:56:52;;;;;;;0.00;0.00;;;;;;;;;;5031877;28;20436;-64
2022/07/21 00:59:17;;;;;;;0.00;0.00;;;;;;;;;;5048422;28;20708;-63
2022/07/21 01:01:43;;;;;;;2.38;1.38;;;;;;;;;;5045892;28;20040;-63
2022/07/21 01:04:08;;;;;;;0.35;0.35;;;;;;;;;;5044846;28;20017;-64
2022/07/21 01:06:33;;;;;;;0.00;0.00;;;;;;;;;;5046021;28;20013;-63
2022/07/21 01:08:58;;;;;;;0.47;0.47;;;;;;;;;;5044962;28;20382;-64
2022/07/21 01:11:24;;;;;;;0.00;0.00;;;;;;;;;;5043524;28;20052;-64
2022/07/21 01:13:50;;;;;;;0.43;0.43;;;;;;;;;;5042075;28;20408;-64
2022/07/21 01:16:15;;;;;;;0.00;0.00;;;;;;;;;;5042825;28;20040;-63
2022/07/21 01:18:40;;;;;;;0.00;0.00;;;;;;;;;;5048481;28;20077;-63
2022/07/21 01:21:26;;;;;;;0.20;0.20;;;;;;;;;;5042687;28;20098;-63
2022/07/21 01:23:52;;;;;;;0.00;0.00;;;;;;;;;;5042406;28;20033;-65
2022/07/21 01:26:17;;;;;;;0.00;0.00;;;;;;;;;;5041451;28;20021;-64
2022/07/21 01:28:42;;;;;;;0.00;0.00;;;;;;;;;;5041946;28;20470;-64
2022/07/21 01:31:07;;;;;;;0.10;0.10;;;;;;;;;;5043125;28;20045;-64
2022/07/21 01:33:33;;;;;;;0.00;0.00;;;;;;;;;;5048724;28;20029;-64
2022/07/21 01:35:58;;;;;;;0.00;0.00;;;;;;;;;;5047132;28;20017;-64
2022/07/21 01:43:51;;;;;;;0.10;0.10;;;;;;;;;;5045692;28;20083;-64
2022/07/21 01:46:16;;;;;;;0.07;0.07;;;;;;;;;;5047202;28;20018;-64
2022/07/21 01:48:42;;;;;;;0.00;0.00;;;;;;;;;;5045312;28;20285;-64
2022/07/21 01:51:07;;;;;;;1.00;1.00;;;;;;;;;;5047390;28;20032;-65
2022/07/21 01:53:33;;;;;;;0.00;0.00;;;;;;;;;;5045321;28;20024;-64
2022/07/21 01:55:58;;;;;;;0.00;0.00;;;;;;;;;;5045590;28;20025;-64
2022/07/21 01:58:23;;;;;;;0.00;0.00;;;;;;;;;;5045410;28;20017;-64
2022/07/21 02:00:49;;;;;;;1.10;1.10;;;;;;;;;;5044122;28;20025;-63
2022/07/21 02:03:14;;;;;;;0.00;0.00;;;;;;;;;;5045315;28;20032;-63
2022/07/21 02:05:39;;;;;;;0.00;0.00;;;;;;;;;;5045818;28;20036;-63
2022/07/21 02:08:04;;;;;;;0.00;0.00;;;;;;;;;;5046235;28;20259;-63
2022/07/21 02:10:29;;;;;;;3.78;3.63;;;;;;;;;;5044065;28;20251;-64
2022/07/21 02:12:55;;;;;;;0.00;0.00;;;;;;;;;;5048365;28;20024;-63
2022/07/21 02:15:20;;;;;;;0.00;0.00;;;;;;;;;;5047484;28;20264;-63
2022/07/21 02:17:45;;;;;;;0.13;0.13;;;;;;;;;;5045899;28;20051;-63
2022/07/21 02:20:10;;;;;;;1.40;1.40;;;;;;;;;;5048050;28;20028;-62
2022/07/21 02:22:36;;;;;;;0.00;0.00;;;;;;;;;;5046829;28;20609;-64
2022/07/21 02:25:01;;;;;;;2.00;0.87;;;;;;;;;;5047695;28;20020;-61
2022/07/21 02:27:26;;;;;;;0.13;0.13;;;;;;;;;;5044049;28;20270;-61
2022/07/21 02:29:51;;;;;;;0.00;0.00;;;;;;;;;;5045323;28;20049;-61
2022/07/21 02:32:17;;;;;;;0.00;0.00;;;;;;;;;;5043949;28;20049;-62
2022/07/21 02:34:42;;;;;;;0.00;0.00;;;;;;;;;;5046162;28;20054;-62
2022/07/21 02:37:07;;;;;;;0.00;0.00;;;;;;;;;;5044616;28;20029;-62
2022/07/21 02:39:32;;;;;;;0.00;0.00;;;;;;;;;;5044170;28;20311;-62
2022/07/21 02:41:59;;;;;;;0.00;0.00;;;;;;;;;;5047168;28;20043;-62
2022/07/21 02:44:24;;;;;;;0.00;0.00;;;;;;;;;;5047898;28;20486;-63
2022/07/21 02:46:49;;;;;;;0.00;0.00;;;;;;;;;;5047575;28;20024;-61
2022/07/21 02:49:14;;;;;;;0.00;0.00;;;;;;;;;;5049510;28;20029;-62
2022/07/21 02:51:39;;;;;;;0.00;0.00;;;;;;;;;;5035758;28;20021;-62
2022/07/21 02:54:05;;;;;;;1.13;1.13;;;;;;;;;;5044023;28;20616;-62
2022/07/21 02:56:30;;;;;;;0.00;0.00;;;;;;;;;;5044259;28;20017;-62
2022/07/21 02:58:55;;;;;;;0.00;0.00;;;;;;;;;;5043689;28;20025;-62
2022/07/21 03:01:20;;;;;;;0.93;0.93;;;;;;;;;;5047408;28;20021;-62
2022/07/21 03:03:45;;;;;;;1.55;1.45;;;;;;;;;;5046035;28;20044;-62
2022/07/21 03:06:11;;;;;;;0.00;0.00;;;;;;;;;;5046564;28;20494;-63
2022/07/21 03:08:36;;;;;;;0.00;0.00;;;;;;;;;;5044053;28;20013;-62
2022/07/21 03:11:03;;;;;;;0.00;0.00;;;;;;;;;;5044178;28;20027;-63
2022/07/21 03:13:28;;;;;;;0.00;0.00;;;;;;;;;;5045573;28;20068;-63
2022/07/21 03:15:53;;;;;;;3.30;1.70;;;;;;;;;;5031126;28;20094;-61
2022/07/21 03:18:18;;;;;;;0.00;0.00;;;;;;;;;;5045228;28;20029;-63
2022/07/21 03:20:44;;;;;;;0.00;0.00;;;;;;;;;;5046302;28;20017;-61
2022/07/21 03:23:09;;;;;;;0.00;0.00;;;;;;;;;;5044006;28;20470;-62
2022/07/21 03:25:35;;;;;;;0.00;0.00;;;;;;;;;;5044675;28;20057;-61
2022/07/21 03:28:00;;;;;;;0.57;0.57;;;;;;;;;;5041243;28;20072;-65
2022/07/21 03:30:26;;;;;;;0.00;0.00;;;;;;;;;;5045205;28;20049;-63
2022/07/21 03:32:51;;;;;;;0.00;0.00;;;;;;;;;;5045332;28;20016;-63
2022/07/21 03:35:18;;;;;;;0.47;0.47;;;;;;;;;;5043251;28;20035;-63
2022/07/21 03:37:44;;;;;;;0.00;0.00;;;;;;;;;;5044295;28;20043;-63
2022/07/21 03:40:10;;;;;;;0.00;0.00;;;;;;;;;;5045133;28;20025;-65
2022/07/21 03:42:36;;;;;;;0.00;0.00;;;;;;;;;;5042896;28;20048;-64
2022/07/21 03:45:01;;;;;;;0.60;0.60;;;;;;;;;;5044915;28;20064;-63
2022/07/21 03:47:26;;;;;;;0.00;0.00;;;;;;;;;;5046997;28;20128;-64
2022/07/21 03:49:51;;;;;;;0.00;0.00;;;;;;;;;;5049009;28;20025;-64
2022/07/21 03:52:16;;;;;;;0.00;0.00;;;;;;;;;;5043392;28;20033;-64
2022/07/21 03:54:42;;;;;;;0.00;0.00;;;;;;;;;;5041085;28;20018;-64
2022/07/21 03:57:07;;;;;;;0.00;0.00;;;;;;;;;;5042726;28;20748;-65
2022/07/21 03:59:32;;;;;;;0.00;0.00;;;;;;;;;;5043960;28;20279;-64
2022/07/21 04:01:57;;;;;;;0.00;0.00;;;;;;;;;;5044041;28;20302;-64
2022/07/21 04:04:22;;;;;;;0.00;0.00;;;;;;;;;;5044657;28;20046;-64
2022/07/21 04:06:48;;;;;;;0.00;0.00;;;;;;;;;;5044188;28;20279;-64
2022/07/21 04:09:13;;;;;;;0.00;0.00;;;;;;;;;;5044851;28;20021;-63
2022/07/21 04:11:38;;;;;;;0.00;0.00;;;;;;;;;;5049317;28;20083;-63
2022/07/21 04:14:04;;;;;;;0.10;0.10;;;;;;;;;;5049369;28;20025;-63
2022/07/21 04:16:29;;;;;;;0.00;0.00;;;;;;;;;;5046842;28;20528;-63
2022/07/21 04:18:54;;;;;;;0.00;0.00;;;;;;;;;;5026345;28;20268;-63
2022/07/21 04:21:19;;;;;;;0.00;0.00;;;;;;;;;;5049701;28;20044;-63
2022/07/21 04:23:45;;;;;;;0.00;0.00;;;;;;;;;;5045353;28;20024;-63
2022/07/21 04:26:10;;;;;;;0.00;0.00;;;;;;;;;;5047672;28;20133;-63
2022/07/21 04:28:35;;;;;;;0.00;0.00;;;;;;;;;;5047140;28;20270;-63
2022/07/21 04:31:00;;;;;;;0.00;0.00;;;;;;;;;;5056598;28;20485;-63
2022/07/21 04:33:26;;;;;;;1.58;1.55;;;;;;;;;;5061437;28;20037;-67
2022/07/21 04:35:51;;;;;;;0.00;0.00;;;;;;;;;;5060490;28;20017;-67
2022/07/21 04:38:17;;;;;;;0.00;0.00;;;;;;;;;;5061027;28;20023;-64
2022/07/21 04:40:43;;;;;;;1.00;1.00;;;;;;;;;;5054988;28;20024;-66
2022/07/21 04:43:08;;;;;;;0.00;0.00;;;;;;;;;;5057304;28;20021;-66
2022/07/21 04:45:33;;;;;;;0.00;0.00;;;;;;;;;;5058183;28;20044;-67
2022/07/21 04:47:59;;;;;;;0.00;0.00;;;;;;;;;;5058321;28;20028;-66
2022/07/21 04:50:25;;;;;;;0.00;0.00;;;;;;;;;;5058264;28;20259;-64
2022/07/21 04:52:50;;;;;;;1.08;1.08;;;;;;;;;;5053783;28;20033;-64
2022/07/21 04:55:16;;;;;;;0.00;0.00;;;;;;;;;;5059930;28;20052;-64
2022/07/21 04:57:43;;;;;;;0.10;0.10;;;;;;;;;;5058198;28;21409;-64
2022/07/21 05:00:09;;;;;;;0.00;0.00;;;;;;;;;;5052391;28;20469;-64
2022/07/21 05:02:35;;;;;;;0.40;0.40;;;;;;;;;;5056940;28;20116;-65
2022/07/21 05:05:01;;;;;;;0.00;0.00;;;;;;;;;;5055669;28;20108;-66
2022/07/21 05:07:26;;;;;;;0.00;0.00;;;;;;;;;;5056948;28;20017;-65
2022/07/21 05:09:51;;;;;;;0.00;0.00;;;;;;;;;;5054599;28;20156;-65
2022/07/21 05:12:16;;;;;;;0.00;0.00;;;;;;;;;;5052797;28;20173;-65
2022/07/21 05:14:42;;;;;;;0.00;0.00;;;;;;;;;;5054545;28;20025;-65
2022/07/21 05:17:07;;;;;;;0.00;0.00;;;;;;;;;;5054782;28;20798;-64
2022/07/21 05:19:32;;;;;;;0.00;0.00;;;;;;;;;;5054600;28;20059;-64
2022/07/21 05:21:57;;;;;;;0.00;0.00;;;;;;;;;;5053413;28;20482;-64
2022/07/21 05:24:23;;;;;;;0.00;0.00;;;;;;;;;;5058017;28;20332;-65
2022/07/21 05:26:48;;;;;;;0.00;0.00;;;;;;;;;;5063042;28;20017;-64
2022/07/21 05:29:13;;;;;;;0.08;0.08;;;;;;;;;;5058393;28;20021;-64
2022/07/21 05:31:38;;;;;;;0.07;0.07;;;;;;;;;;5055340;28;20028;-63
2022/07/21 05:34:03;;;;;;;0.00;0.00;;;;;;;;;;5063443;28;20270;-63
2022/07/21 05:36:29;;;;;;;0.00;0.00;;;;;;;;;;5059402;28;20043;-63
2022/07/21 05:38:54;;;;;;;0.00;0.00;;;;;;;;;;5061498;28;20079;-63
2022/07/21 05:41:21;;;;;;;4.18;3.30;;;;;;;;;;5065808;28;20109;-63
2022/07/21 05:43:46;;;;;;;0.00;0.00;;;;;;;;;;5057092;28;20453;-64
2022/07/21 05:46:11;;;;;;;0.00;0.00;;;;;;;;;;5054688;28;20032;-63
2022/07/21 05:48:36;;;;;;;0.00;0.00;;;;;;;;;;5052715;28;20036;-63
2022/07/21 05:51:02;;;;;;;0.47;0.28;;;;;;;;;;5059061;28;20032;-60
2022/07/21 05:53:27;;;;;;;0.00;0.00;;;;;;;;;;5051693;28;20025;-62
2022/07/21 05:55:52;;;;;;;0.80;0.80;;;;;;;;;;5063362;28;20036;-60
2022/07/21 05:58:19;;;;;;;0.73;0.50;;;;;;;;;;5063725;28;20025;-61
2022/07/21 06:01:07;;;;;;;0.52;0.52;;;;;;;;;;5059892;28;20071;-61
2022/07/21 06:03:30;;;;;;;0.82;0.82;;;;;;;;;;5057965;28;20036;-61
2022/07/21 06:05:55;;;;;;;0.08;0.08;;;;;;;;;;5059728;28;20374;-62
2022/07/21 06:08:20;;;;;;;0.80;0.80;;;;;;;;;;5058797;28;20400;-62
2022/07/21 06:10:45;;;;;;;5.03;3.93;;;;;;;;;;5047284;28;20267;-62
2022/07/21 06:13:10;;;;;;;1.50;1.40;;;;;;;;;;5057696;28;20259;-62
2022/07/21 06:15:36;;;;;;;0.20;0.20;;;;;;;;;;5062218;28;20025;-63
2022/07/21 06:18:01;;;;;;;3.97;2.40;;;;;;;;;;5055452;28;20654;-61
2022/07/21 06:20:26;;;;;;;0.23;0.17;;;;;;;;;;5057412;28;20354;-62
2022/07/21 06:22:51;;;;;;;0.57;0.57;;;;;;;;;;5055860;28;20255;-64
2022/07/21 06:25:16;;;;;;;1.23;1.03;;;;;;;;;;5064088;28;20359;-64
2022/07/21 06:27:42;;;;;;;0.03;0.03;;;;;;;;;;5057466;28;20251;-64
2022/07/21 06:30:08;;;;;;;1.27;1.10;;;;;;;;;;5052220;28;20049;-62
2022/07/21 06:32:33;;;;;;;0.00;0.00;;;;;;;;;;5045862;28;20036;-65
2022/07/21 06:34:58;;;;;;;2.77;0.30;;;;;;;;;;5046338;28;20025;-65
2022/07/21 06:37:23;;;;;;;1.30;0.80;;;;;;;;;;5041847;28;20724;-66
2022/07/21 06:39:49;;;;;;;0.00;0.00;;;;;;;;;;5044705;28;20259;-65
2022/07/21 06:42:14;;;;;;;0.10;0.10;;;;;;;;;;5043475;28;20260;-65
2022/07/21 06:44:39;;;;;;;0.15;0.15;;;;;;;;;;5046032;28;20029;-64
2022/07/21 06:47:04;;;;;;;0.13;0.13;;;;;;;;;;5043015;28;20447;-65
2022/07/21 06:49:32;;;;;;;0.00;0.00;;;;;;;;;;5046941;28;20255;-66
2022/07/21 06:51:58;;;;;;;1.50;0.93;;;;;;;;;;5022927;28;20108;-66
2022/07/21 06:54:23;;;;;;;0.08;0.08;;;;;;;;;;5049988;28;20527;-65
2022/07/21 06:56:48;;;;;;;0.65;0.65;;;;;;;;;;5047232;28;20029;-65
2022/07/21 06:59:13;;;;;;;0.90;0.90;;;;;;;;;;5049603;28;20021;-66
2022/07/21 07:01:38;;;;;;;0.00;0.00;;;;;;;;;;5049084;28;20260;-64
2022/07/21 07:04:04;;;;;;;0.98;0.70;;;;;;;;;;5048270;28;20060;-65
2022/07/21 07:06:29;;;;;;;0.47;0.47;;;;;;;;;;5048123;28;20016;-65
2022/07/21 07:08:54;;;;;;;0.85;0.85;;;;;;;;;;5033107;28;20029;-65
2022/07/21 07:11:19;;;;;;;0.10;0.10;;;;;;;;;;5029490;28;20449;-65
2022/07/21 07:13:45;;;;;;;0.10;0.10;;;;;;;;;;5047493;28;20545;-65
2022/07/21 07:16:10;;;;;;;0.00;0.00;;;;;;;;;;5042507;28;20288;-65
2022/07/21 07:18:37;;;;;;;0.00;0.00;;;;;;;;;;5045211;28;20350;-64
2022/07/21 07:21:02;;;;;;;1.00;1.00;;;;;;;;;;5043304;28;20039;-64
2022/07/21 07:23:27;;;;;;;0.00;0.00;;;;;;;;;;5045911;28;20029;-65
2022/07/21 07:25:55;;;;;;;0.67;0.37;;;;;;;;;;5048516;28;20138;-64
2022/07/21 07:28:20;;;;;;;3.07;2.90;;;;;;;;;;5045684;28;20298;-65
2022/07/21 07:30:46;;;;;;;3.20;0.73;;;;;;;;;;5048938;28;20044;-62
2022/07/21 07:33:11;;;;;;;0.28;0.28;;;;;;;;;;5035532;28;20394;-63
2022/07/21 07:35:36;;;;;;;0.85;0.85;;;;;;;;;;5017268;28;20386;-63
2022/07/21 07:38:01;;;;;;;0.05;0.05;;;;;;;;;;5038571;28;20065;-63
2022/07/21 07:40:27;;;;;;;0.00;0.00;;;;;;;;;;5041992;28;20398;-63
2022/07/21 07:42:52;;;;;;;1.10;1.10;;;;;;;;;;5048100;28;20389;-62
2022/07/21 07:45:18;;;;;;;0.08;0.08;;;;;;;;;;5033220;28;20027;-66
2022/07/21 07:47:43;;;;;;;0.00;0.00;;;;;;;;;;5039931;28;20157;-63
2022/07/21 07:50:09;;;;;;;0.00;0.00;;;;;;;;;;5050886;28;20027;-63
2022/07/21 07:52:35;;;;;;;0.03;0.03;;;;;;;;;;5049058;28;20013;-63
2022/07/21 07:55:04;;;;;;;0.82;0.68;;;;;;;;;;5042421;28;20021;-63
2022/07/21 07:57:30;;;;;;;0.00;0.00;;;;;;;;;;5048978;28;20037;-63
2022/07/21 07:59:55;;;;;;;0.00;0.00;;;;;;;;;;5053053;28;20117;-63
2022/07/21 08:02:20;;;;;;;0.13;0.13;;;;;;;;;;5053539;28;20548;-63
2022/07/21 08:04:45;;;;;;;0.00;0.00;;;;;;;;;;5042983;28;20301;-63
2022/07/21 08:07:10;;;;;;;0.00;0.00;;;;;;;;;;5052783;28;20260;-62
2022/07/21 08:09:36;;;;;;;0.00;0.00;;;;;;;;;;5047475;28;20289;-62
2022/07/21 08:12:01;;;;;;;0.00;0.00;;;;;;;;;;5043375;28;20025;-63
2022/07/21 08:14:26;;;;;;;0.30;0.30;;;;;;;;;;5049616;28;20266;-63
2022/07/21 08:16:51;;;;;;;0.97;0.57;;;;;;;;;;5050082;28;20030;-64
2022/07/21 08:19:17;;;;;;;0.00;0.00;;;;;;;;;;5047168;28;20278;-62
2022/07/21 08:21:42;;;;;;;0.00;0.00;;;;;;;;;;5055547;28;20112;-64
2022/07/21 08:24:08;;;;;;;0.90;0.88;;;;;;;;;;5048850;28;20065;-68
2022/07/21 08:26:33;;;;;;;0.00;0.00;;;;;;;;;;5045695;28;20036;-66
2022/07/21 08:28:58;;;;;;;0.30;0.30;;;;;;;;;;5047665;28;20064;-67
2022/07/21 08:31:24;;;;;;;0.28;0.28;;;;;;;;;;5049141;28;20041;-66
2022/07/21 08:33:50;;;;;;;0.00;0.00;;;;;;;;;;5051988;28;20407;-66
2022/07/21 08:36:15;;;;;;;0.00;0.00;;;;;;;;;;5049569;28;20025;-66
2022/07/21 08:38:41;;;;;;;0.00;0.00;;;;;;;;;;5029830;28;20036;-66
2022/07/21 08:41:08;;;;;;;0.00;0.00;;;;;;;;;;5048969;28;20048;-65
2022/07/21 08:43:33;;;;;;;0.00;0.00;;;;;;;;;;5044093;28;20276;-64
2022/07/21 08:45:59;;;;;;;0.00;0.00;;;;;;;;;;5030771;28;20489;-65
2022/07/21 08:48:24;;;;;;;0.60;0.60;;;;;;;;;;5038364;28;20018;-65
2022/07/21 08:50:50;;;;;;;0.10;0.10;;;;;;;;;;5048356;28;20102;-65
2022/07/21 08:53:15;;;;;;;2.30;1.95;;;;;;;;;;5033205;28;20486;-65
2022/07/21 08:55:40;;;;;;;0.15;0.15;;;;;;;;;;5046168;28;20025;-65
2022/07/21 08:58:08;;;;;;;2.22;2.10;;;;;;;;;;5041548;28;20029;-66
2022/07/21 09:00:34;;;;;;;0.00;0.00;;;;;;;;;;5046086;28;20074;-66
2022/07/21 09:03:14;;;;;;;0.00;0.00;;;;;;;;;;5044368;28;20044;-65
2022/07/21 09:05:40;;;;;;;0.00;0.00;;;;;;;;;;5044522;28;20400;-66
2022/07/21 09:08:06;;;;;;;0.10;0.10;;;;;;;;;;5046884;28;20019;-66
2022/07/21 09:10:31;;;;;;;0.20;0.20;;;;;;;;;;5045445;28;20025;-66
2022/07/21 09:12:58;;;;;;;0.00;0.00;;;;;;;;;;5038330;28;20017;-66
2022/07/21 09:15:24;;;;;;;0.50;0.50;;;;;;;;;;5036492;28;20031;-66
2022/07/21 09:18:06;;;;;;;0.00;0.00;;;;;;;;;;5045776;28;20821;-66
2022/07/21 09:20:32;;;;;;;2.80;0.10;;;;;;;;;;5035399;28;20033;-66
2022/07/21 09:23:01;;;;;;;0.10;0.10;;;;;;;;;;5041434;28;20036;-66
2022/07/21 09:25:37;;;;;;;0.30;0.30;;;;;;;;;;5047436;28;20036;-65
2022/07/21 09:28:13;;;;;;;0.28;0.28;;;;;;;;;;5043979;28;20014;-65
2022/07/21 09:30:49;;;;;;;0.28;0.28;;;;;;;;;;5052762;28;20600;-65
2022/07/21 09:33:27;;;;;;;0.30;0.30;;;;;;;;;;5054115;28;20061;-65
2022/07/21 09:35:59;;;;;;;1.00;1.00;;;;;;;;;;5052779;28;20024;-66
2022/07/21 09:38:25;;;;;;;0.20;0.20;;;;;;;;;;5058102;28;20363;-65
2022/07/21 09:40:50;;;;;;;1.30;1.30;;;;;;;;;;5056242;28;20081;-66
2022/07/21 09:43:41;;;;;;;0.00;0.00;;;;;;;;;;5056588;28;20024;-65
2022/07/21 09:46:06;;;;;;;0.75;0.75;;;;;;;;;;5046788;28;20025;-66
2022/07/21 09:48:33;;;;;;;0.00;0.00;;;;;;;;;;5052359;28;20025;-65
2022/07/21 09:51:18;;;;;;;0.47;0.47;;;;;;;;;;5056923;28;20036;-65
2022/07/21 09:54:01;;;;;;;0.00;0.00;;;;;;;;;;5057238;28;20031;-65
2022/07/21 09:56:31;;;;;;;2.58;2.53;;;;;;;;;;5057369;28;20024;-66
2022/07/21 09:58:57;;;;;;;0.00;0.00;;;;;;;;;;5055555;28;20094;-66
2022/07/21 10:01:23;;;;;;;0.35;0.35;;;;;;;;;;5057134;28;20378;-65
2022/07/21 10:03:48;;;;;;;0.17;0.17;;;;;;;;;;5058731;28;20033;-65
2022/07/21 10:06:18;;;;;;;0.00;0.00;;;;;;;;;;5050080;28;20070;-65
2022/07/21 10:08:44;;;;;;;0.17;0.17;;;;;;;;;;5048377;28;20017;-66
2022/07/21 10:11:10;;;;;;;0.90;0.82;;;;;;;;;;5045329;28;20461;-66
2022/07/21 10:13:36;;;;;;;0.20;0.20;;;;;;;;;;5060860;28;20036;-66
2022/07/21 10:16:02;;;;;;;0.00;0.00;;;;;;;;;;5043363;28;20116;-66
2022/07/21 10:18:30;;;;;;;0.00;0.00;;;;;;;;;;5055643;28;20103;-68
2022/07/21 10:21:18;;;;;;;0.43;0.43;;;;;;;;;;5057721;28;20028;-64
2022/07/21 10:23:44;;;;;;;0.80;0.30;;;;;;;;;;5023466;28;20044;-64
2022/07/21 10:26:10;;;;;;;0.47;0.47;;;;;;;;;;5057632;28;20342;-63
2022/07/21 10:28:35;;;;;;;0.00;0.00;;;;;;;;;;5059841;28;20067;-63
2022/07/21 10:31:12;;;;;;;0.27;0.27;;;;;;;;;;5045781;28;20053;-63
2022/07/21 10:33:46;;;;;;;0.00;0.00;;;;;;;;;;5046642;28;20319;-63
2022/07/21 10:36:33;;;;;;;0.00;0.00;;;;;;;;;;5048044;28;20035;-63
2022/07/21 10:39:08;;;;;;;0.05;0.05;;;;;;;;;;5022397;28;20033;-62
2022/07/21 10:41:44;;;;;;;0.15;0.15;;;;;;;;;;5049532;28;20059;-63
2022/07/21 10:44:28;;;;;;;0.20;0.15;;;;;;;;;;5050146;28;20040;-63
2022/07/21 10:47:03;;;;;;;0.00;0.00;;;;;;;;;;5044132;28;20019;-65
2022/07/21 10:49:40;;;;;;;3.10;0.80;;;;;;;;;;5036986;28;20374;-65
2022/07/21 10:52:26;;;;;;;0.17;0.17;;;;;;;;;;5030528;28;20017;-66
2022/07/21 10:55:09;;;;;;;0.82;0.55;;;;;;;;;;5040926;28;20175;-64
2022/07/21 10:57:35;;;;;;;0.00;0.00;;;;;;;;;;5047467;28;20466;-64
2022/07/21 11:00:16;;;;;;;0.20;0.20;;;;;;;;;;5043072;28;20100;-63
2022/07/21 11:02:41;;;;;;;0.00;0.00;;;;;;;;;;5042361;28;20040;-63
2022/07/21 11:05:07;;;;;;;0.00;0.00;;;;;;;;;;5042911;28;20373;-63
2022/07/21 11:07:51;;;;;;;0.00;0.00;;;;;;;;;;5050088;28;20104;-63
2022/07/21 11:10:17;;;;;;;0.00;0.00;;;;;;;;;;5047010;28;20048;-63
2022/07/21 11:12:54;;;;;;;0.43;0.35;;;;;;;;;;5047087;28;20020;-62
2022/07/21 11:15:38;;;;;;;0.22;0.22;;;;;;;;;;5046516;28;20110;-62
2022/07/21 11:18:03;;;;;;;0.00;0.00;;;;;;;;;;5050500;28;20040;-62
2022/07/21 11:20:29;;;;;;;0.00;0.00;;;;;;;;;;5049238;28;20350;-63
2022/07/21 11:22:54;;;;;;;0.00;0.00;;;;;;;;;;5040888;28;20762;-63
2022/07/21 11:25:19;;;;;;;0.13;0.13;;;;;;;;;;5047044;28;20283;-63
2022/07/21 11:27:44;;;;;;;0.00;0.00;;;;;;;;;;5051344;28;20017;-63
2022/07/21 11:30:10;;;;;;;0.00;0.00;;;;;;;;;;5045204;28;20051;-63
2022/07/21 11:32:35;;;;;;;0.10;0.10;;;;;;;;;;5041570;28;20264;-63
2022/07/21 11:35:03;;;;;;;0.00;0.00;;;;;;;;;;5045224;28;20029;-63
2022/07/21 11:37:30;;;;;;;0.00;0.00;;;;;;;;;;5042421;28;20053;-63
2022/07/21 11:39:55;;;;;;;0.25;0.25;;;;;;;;;;5042751;28;20096;-63
2022/07/21 11:42:20;;;;;;;0.52;0.38;;;;;;;;;;5046270;28;20482;-63
2022/07/21 11:44:46;;;;;;;0.00;0.00;;;;;;;;;;5042027;28;20021;-63
2022/07/21 11:47:12;;;;;;;0.00;0.00;;;;;;;;;;5040513;28;20017;-63
2022/07/21 11:49:38;;;;;;;0.45;0.45;;;;;;;;;;5046084;28;20421;-63
2022/07/21 11:52:08;;;;;;;0.10;0.10;;;;;;;;;;5051615;28;20021;-63
2022/07/21 11:54:53;;;;;;;0.00;0.00;;;;;;;;;;5048043;28;20078;-63
2022/07/21 11:57:19;;;;;;;0.20;0.20;;;;;;;;;;5043791;28;20071;-63
2022/07/21 11:59:45;;;;;;;0.38;0.38;;;;;;;;;;5050647;28;20427;-63
2022/07/21 12:02:11;;;;;;;0.30;0.30;;;;;;;;;;5047859;28;20053;-63
2022/07/21 12:04:40;;;;;;;0.00;0.00;;;;;;;;;;5041446;28;20034;-63
2022/07/21 12:07:25;;;;;;;0.00;0.00;;;;;;;;;;5030968;28;20386;-62
2022/07/21 12:09:56;;;;;;;0.00;0.00;;;;;;;;;;5045384;28;20533;-63
2022/07/21 12:12:40;;;;;;;0.00;0.00;;;;;;;;;;5045670;28;20025;-63
2022/07/21 12:15:17;;;;;;;0.00;0.00;;;;;;;;;;5039714;28;20062;-63
2022/07/21 12:17:45;;;;;;;1.65;0.75;;;;;;;;;;5043557;28;20056;-63
2022/07/21 12:20:10;;;;;;;0.33;0.30;;;;;;;;;;5041932;28;20032;-63
2022/07/21 12:22:46;;;;;;;0.98;0.30;;;;;;;;;;5041532;28;20613;-63
2022/07/21 12:25:16;;;;;;;0.00;0.00;;;;;;;;;;5046599;28;20048;-63
2022/07/21 12:27:42;;;;;;;0.10;0.10;;;;;;;;;;5045803;28;20043;-64
2022/07/21 12:30:08;;;;;;;0.00;0.00;;;;;;;;;;5041586;28;20125;-64
2022/07/21 12:32:39;;;;;;;0.10;0.10;;;;;;;;;;5052531;28;20036;-63
2022/07/21 12:35:04;;;;;;;0.10;0.10;;;;;;;;;;5047535;28;20456;-63
2022/07/21 12:37:48;;;;;;;0.00;0.00;;;;;;;;;;5050906;28;20100;-64
2022/07/21 12:40:13;;;;;;;0.00;0.00;;;;;;;;;;5053356;28;20032;-63
2022/07/21 12:42:38;;;;;;;0.00;0.00;;;;;;;;;;5052101;28;20438;-63
2022/07/21 12:45:20;;;;;;;0.00;0.00;;;;;;;;;;5049486;28;20275;-64
2022/07/21 12:48:04;;;;;;;0.00;0.00;;;;;;;;;;5047970;28;20498;-64
2022/07/21 12:50:29;;;;;;;0.90;0.90;;;;;;;;;;5044420;28;20043;-64
2022/07/21 12:52:54;;;;;;;0.00;0.00;;;;;;;;;;5048992;28;20017;-63
2022/07/21 12:55:19;;;;;;;0.00;0.00;;;;;;;;;;5044350;28;20045;-64
2022/07/21 12:57:44;;;;;;;1.08;1.08;;;;;;;;;;5048364;28;20256;-64
2022/07/21 13:00:10;;;;;;;0.00;0.00;;;;;;;;;;5049859;28;20036;-64
2022/07/21 13:02:48;;;;;;;0.55;0.55;;;;;;;;;;5046335;28;20021;-64
2022/07/21 13:05:13;;;;;;;0.20;0.13;;;;;;;;;;5049513;28;20025;-63
2022/07/21 13:07:39;;;;;;;0.00;0.00;;;;;;;;;;5046594;28;20039;-63
2022/07/21 13:10:04;;;;;;;0.52;0.52;;;;;;;;;;5054112;28;20620;-62
2022/07/21 13:12:29;;;;;;;0.08;0.08;;;;;;;;;;5051191;28;20264;-63
2022/07/21 13:14:54;;;;;;;0.00;0.00;;;;;;;;;;5049249;28;20024;-63
2022/07/21 13:17:20;;;;;;;0.00;0.00;;;;;;;;;;5044049;28;20108;-65
2022/07/21 13:19:45;;;;;;;0.10;0.10;;;;;;;;;;5046104;28;20274;-62
2022/07/21 13:22:10;;;;;;;0.32;0.32;;;;;;;;;;5043447;28;20365;-63
2022/07/21 13:24:35;;;;;;;0.73;0.73;;;;;;;;;;5046542;28;20108;-64
2022/07/21 13:27:00;;;;;;;0.00;0.00;;;;;;;;;;5046585;28;20251;-64
2022/07/21 13:29:26;;;;;;;0.37;0.37;;;;;;;;;;5045955;28;20731;-63
2022/07/21 13:31:51;;;;;;;1.05;0.98;;;;;;;;;;5056548;28;20278;-64
2022/07/21 13:34:16;;;;;;;1.98;0.63;;;;;;;;;;5061359;28;20128;-64
2022/07/21 13:36:41;;;;;;;0.00;0.00;;;;;;;;;;5065156;28;20021;-64
2022/07/21 13:39:07;;;;;;;0.00;0.00;;;;;;;;;;5061555;28;20073;-64
2022/07/21 13:41:32;;;;;;;0.82;0.80;;;;;;;;;;5055389;28;20039;-63
2022/07/21 13:43:58;;;;;;;0.13;0.13;;;;;;;;;;5054283;28;20049;-64
2022/07/21 13:46:23;;;;;;;0.00;0.00;;;;;;;;;;5058926;28;20029;-64
2022/07/21 13:48:48;;;;;;;0.35;0.35;;;;;;;;;;5057020;28;20016;-64
2022/07/21 13:51:15;;;;;;;0.47;0.30;;;;;;;;;;5057662;28;20653;-64
2022/07/21 13:53:41;;;;;;;0.00;0.00;;;;;;;;;;5052474;28;20024;-64
2022/07/21 13:56:06;;;;;;;0.85;0.85;;;;;;;;;;5042232;28;20017;-64
2022/07/21 13:58:32;;;;;;;0.77;0.63;;;;;;;;;;5064164;28;20027;-65
2022/07/21 14:00:57;;;;;;;0.00;0.00;;;;;;;;;;5055460;28;20056;-64
2022/07/21 14:03:23;;;;;;;0.00;0.00;;;;;;;;;;5059504;28;20106;-63
2022/07/21 14:05:48;;;;;;;1.20;1.20;;;;;;;;;;5056427;28;20021;-64
2022/07/21 14:08:14;;;;;;;0.73;0.73;;;;;;;;;;5062066;28;20365;-65
2022/07/21 14:10:40;;;;;;;0.20;0.20;;;;;;;;;;5054183;28;20100;-65
2022/07/21 14:13:05;;;;;;;0.15;0.15;;;;;;;;;;5060188;28;20716;-64
2022/07/21 14:15:30;;;;;;;5.93;2.87;;;;;;;;;;5059849;28;20373;-64
2022/07/21 14:17:55;;;;;;;0.80;0.43;;;;;;;;;;5051173;28;20291;-64
2022/07/21 14:20:20;;;;;;;0.33;0.33;;;;;;;;;;5059543;28;20024;-64
2022/07/21 14:22:46;;;;;;;0.75;0.75;;;;;;;;;;5058525;28;20271;-64
2022/07/21 14:25:20;;;;;;;0.00;0.00;;;;;;;;;;5056712;28;20025;-62
2022/07/21 14:27:50;;;;;;;0.63;0.63;;;;;;;;;;5059809;28;20078;-65
2022/07/21 14:30:16;;;;;;;2.80;2.30;;;;;;;;;;5051644;28;20051;-64
2022/07/21 14:32:41;;;;;;;0.00;0.00;;;;;;;;;;5045621;28;20025;-64
2022/07/21 14:35:06;;;;;;;0.00;0.00;;;;;;;;;;5043259;28;20101;-63
2022/07/21 14:37:32;;;;;;;0.08;0.08;;;;;;;;;;5043690;28;20036;-64
2022/07/21 14:39:57;;;;;;;1.15;1.15;;;;;;;;;;5040125;28;20385;-63
2022/07/21 14:42:23;;;;;;;3.65;1.73;;;;;;;;;;5042298;28;20033;-64
2022/07/21 14:44:49;;;;;;;0.00;0.00;;;;;;;;;;5041576;28;20051;-64
2022/07/21 14:47:14;;;;;;;1.95;1.85;;;;;;;;;;5045213;28;20024;-63